sensor_id;sensor_type;location;lat;lon;timestamp;P1;durP1;ratioP1;P2;durP2;ratioP2
21330;SDS011;10824;51.632;4.950;2023-09-12T00:00:13;8.23;;;3.78;;
21330;SDS011;10824;51.632;4.950;2023-09-12T00:02:40;6.95;;;3.30;;
21330;SDS011;10824;51.632;4.950;2023-09-12T00:05:07;5.53;;;3.15;;
21330;SDS011;10824;51.632;4.950;2023-09-12T00:07:35;9.10;;;3.95;;
21330;SDS011;10824;51.632;4.950;2023-09-12T00:10:02;6.18;;;3.47;;
21330;SDS011;10824;51.632;4.950;2023-09-12T00:12:30;16.63;;;4.63;;
21330;SDS011;10824;51.632;4.950;2023-09-12T00:14:57;7.55;;;3.22;;
21330;SDS011;10824;51.632;4.950;2023-09-12T00:17:24;5.85;;;3.05;;
21330;SDS011;10824;51.632;4.950;2023-09-12T00:19:53;6.72;;;3.42;;
21330;SDS011;10824;51.632;4.950;2023-09-12T00:22:20;5.65;;;3.28;;
21330;SDS011;10824;51.632;4.950;2023-09-12T00:24:47;9.05;;;3.28;;
21330;SDS011;10824;51.632;4.950;2023-09-12T00:27:14;6.70;;;3.03;;
21330;SDS011;10824;51.632;4.950;2023-09-12T00:29:42;5.68;;;3.00;;
21330;SDS011;10824;51.632;4.950;2023-09-12T00:32:09;8.52;;;3.50;;
21330;SDS011;10824;51.632;4.950;2023-09-12T00:34:36;6.90;;;3.58;;
21330;SDS011;10824;51.632;4.950;2023-09-12T00:37:03;8.27;;;3.88;;
21330;SDS011;10824;51.632;4.950;2023-09-12T00:39:31;5.95;;;3.72;;
21330;SDS011;10824;51.632;4.950;2023-09-12T00:41:58;8.65;;;3.00;;
21330;SDS011;10824;51.632;4.950;2023-09-12T00:44:26;5.72;;;3.17;;
21330;SDS011;10824;51.632;4.950;2023-09-12T00:46:53;10.50;;;3.40;;
21330;SDS011;10824;51.632;4.950;2023-09-12T00:49:21;7.07;;;3.38;;
21330;SDS011;10824;51.632;4.950;2023-09-12T00:51:50;5.75;;;3.53;;
21330;SDS011;10824;51.632;4.950;2023-09-12T00:54:17;28.13;;;4.28;;
21330;SDS011;10824;51.632;4.950;2023-09-12T00:56:45;8.48;;;3.63;;
21330;SDS011;10824;51.632;4.950;2023-09-12T00:59:13;8.15;;;3.33;;
21330;SDS011;10824;51.632;4.950;2023-09-12T01:01:42;4.10;;;2.60;;
21330;SDS011;10824;51.632;4.950;2023-09-12T01:04:10;6.60;;;3.38;;
21330;SDS011;10824;51.632;4.950;2023-09-12T01:06:58;8.48;;;3.47;;
21330;SDS011;10824;51.632;4.950;2023-09-12T01:09:25;11.90;;;4.68;;
21330;SDS011;10824;51.632;4.950;2023-09-12T01:11:52;9.82;;;4.38;;
21330;SDS011;10824;51.632;4.950;2023-09-12T01:14:19;8.45;;;4.15;;
21330;SDS011;10824;51.632;4.950;2023-09-12T01:16:46;6.57;;;3.25;;
21330;SDS011;10824;51.632;4.950;2023-09-12T01:19:14;5.35;;;3.25;;
21330;SDS011;10824;51.632;4.950;2023-09-12T01:27:22;9.68;;;3.55;;
21330;SDS011;10824;51.632;4.950;2023-09-12T01:29:56;8.43;;;4.63;;
21330;SDS011;10824;51.632;4.950;2023-09-12T01:32:25;6.10;;;3.30;;
21330;SDS011;10824;51.632;4.950;2023-09-12T01:34:54;7.40;;;3.83;;
21330;SDS011;10824;51.632;4.950;2023-09-12T01:37:22;7.05;;;3.70;;
21330;SDS011;10824;51.632;4.950;2023-09-12T01:39:49;5.97;;;3.60;;
21330;SDS011;10824;51.632;4.950;2023-09-12T01:42:18;7.13;;;3.55;;
21330;SDS011;10824;51.632;4.950;2023-09-12T01:44:49;10.43;;;4.25;;
21330;SDS011;10824;51.632;4.950;2023-09-12T01:47:20;7.30;;;4.13;;
21330;SDS011;10824;51.632;4.950;2023-09-12T01:49:49;8.02;;;4.55;;
21330;SDS011;10824;51.632;4.950;2023-09-12T01:52:19;7.22;;;3.72;;
21330;SDS011;10824;51.632;4.950;2023-09-12T01:54:46;8.80;;;4.35;;
21330;SDS011;10824;51.632;4.950;2023-09-12T01:57:15;10.57;;;4.78;;
21330;SDS011;10824;51.632;4.950;2023-09-12T01:59:43;14.48;;;3.97;;
21330;SDS011;10824;51.632;4.950;2023-09-12T02:02:11;10.77;;;4.45;;
21330;SDS011;10824;51.632;4.950;2023-09-12T02:04:38;10.73;;;4.32;;
21330;SDS011;10824;51.632;4.950;2023-09-12T02:07:05;9.30;;;4.85;;
21330;SDS011;10824;51.632;4.950;2023-09-12T02:09:32;6.35;;;3.42;;
21330;SDS011;10824;51.632;4.950;2023-09-12T02:11:59;6.63;;;3.22;;
21330;SDS011;10824;51.632;4.950;2023-09-12T02:14:26;7.22;;;2.97;;
21330;SDS011;10824;51.632;4.950;2023-09-12T02:16:53;6.40;;;3.30;;
21330;SDS011;10824;51.632;4.950;2023-09-12T02:19:20;5.03;;;3.10;;
21330;SDS011;10824;51.632;4.950;2023-09-12T02:21:47;5.28;;;2.38;;
21330;SDS011;10824;51.632;4.950;2023-09-12T02:24:14;7.47;;;3.38;;
21330;SDS011;10824;51.632;4.950;2023-09-12T02:26:43;5.93;;;3.20;;
21330;SDS011;10824;51.632;4.950;2023-09-12T02:29:11;7.13;;;4.00;;
21330;SDS011;10824;51.632;4.950;2023-09-12T02:31:38;6.03;;;3.83;;
21330;SDS011;10824;51.632;4.950;2023-09-12T02:34:05;6.30;;;2.97;;
21330;SDS011;10824;51.632;4.950;2023-09-12T02:36:32;7.53;;;4.03;;
21330;SDS011;10824;51.632;4.950;2023-09-12T02:38:59;12.75;;;5.38;;
21330;SDS011;10824;51.632;4.950;2023-09-12T02:41:26;38.13;;;5.38;;
21330;SDS011;10824;51.632;4.950;2023-09-12T02:43:53;12.23;;;5.03;;
21330;SDS011;10824;51.632;4.950;2023-09-12T02:46:21;11.40;;;4.63;;
21330;SDS011;10824;51.632;4.950;2023-09-12T02:48:49;9.93;;;3.72;;
21330;SDS011;10824;51.632;4.950;2023-09-12T02:51:19;10.02;;;4.47;;
21330;SDS011;10824;51.632;4.950;2023-09-12T02:53:46;6.55;;;3.50;;
21330;SDS011;10824;51.632;4.950;2023-09-12T02:56:13;8.80;;;3.40;;
21330;SDS011;10824;51.632;4.950;2023-09-12T02:58:40;7.38;;;3.42;;
21330;SDS011;10824;51.632;4.950;2023-09-12T03:01:07;6.85;;;3.58;;
21330;SDS011;10824;51.632;4.950;2023-09-12T03:03:40;8.23;;;3.70;;
21330;SDS011;10824;51.632;4.950;2023-09-12T03:06:07;8.75;;;4.68;;
21330;SDS011;10824;51.632;4.950;2023-09-12T03:08:35;6.45;;;4.18;;
21330;SDS011;10824;51.632;4.950;2023-09-12T03:11:02;10.27;;;4.07;;
21330;SDS011;10824;51.632;4.950;2023-09-12T03:13:29;8.43;;;3.42;;
21330;SDS011;10824;51.632;4.950;2023-09-12T03:15:57;9.13;;;3.78;;
21330;SDS011;10824;51.632;4.950;2023-09-12T03:18:24;10.52;;;4.90;;
21330;SDS011;10824;51.632;4.950;2023-09-12T03:20:51;7.05;;;3.80;;
21330;SDS011;10824;51.632;4.950;2023-09-12T03:23:21;7.55;;;4.07;;
21330;SDS011;10824;51.632;4.950;2023-09-12T03:25:48;5.22;;;3.33;;
21330;SDS011;10824;51.632;4.950;2023-09-12T03:28:15;5.75;;;3.40;;
21330;SDS011;10824;51.632;4.950;2023-09-12T03:30:42;10.20;;;4.60;;
21330;SDS011;10824;51.632;4.950;2023-09-12T03:33:10;13.80;;;4.82;;
21330;SDS011;10824;51.632;4.950;2023-09-12T03:35:37;9.75;;;4.55;;
21330;SDS011;10824;51.632;4.950;2023-09-12T03:38:04;7.80;;;4.03;;
21330;SDS011;10824;51.632;4.950;2023-09-12T03:40:31;23.88;;;6.30;;
21330;SDS011;10824;51.632;4.950;2023-09-12T03:42:59;8.75;;;4.68;;
21330;SDS011;10824;51.632;4.950;2023-09-12T03:45:26;9.10;;;4.30;;
21330;SDS011;10824;51.632;4.950;2023-09-12T03:47:54;9.25;;;4.03;;
21330;SDS011;10824;51.632;4.950;2023-09-12T03:50:21;7.47;;;3.83;;
21330;SDS011;10824;51.632;4.950;2023-09-12T03:52:48;13.38;;;4.28;;
21330;SDS011;10824;51.632;4.950;2023-09-12T03:55:15;7.32;;;3.70;;
21330;SDS011;10824;51.632;4.950;2023-09-12T03:57:43;9.93;;;4.95;;
21330;SDS011;10824;51.632;4.950;2023-09-12T04:00:10;7.45;;;4.13;;
21330;SDS011;10824;51.632;4.950;2023-09-12T04:02:39;11.98;;;4.38;;
21330;SDS011;10824;51.632;4.950;2023-09-12T04:05:06;12.77;;;5.38;;
21330;SDS011;10824;51.632;4.950;2023-09-12T04:07:33;9.45;;;5.03;;
21330;SDS011;10824;51.632;4.950;2023-09-12T04:10:00;8.52;;;4.28;;
21330;SDS011;10824;51.632;4.950;2023-09-12T04:12:28;9.70;;;4.13;;
21330;SDS011;10824;51.632;4.950;2023-09-12T04:14:55;11.68;;;6.18;;
21330;SDS011;10824;51.632;4.950;2023-09-12T04:17:22;9.35;;;4.32;;
21330;SDS011;10824;51.632;4.950;2023-09-12T04:19:50;8.10;;;4.18;;
21330;SDS011;10824;51.632;4.950;2023-09-12T04:22:18;9.68;;;4.32;;
21330;SDS011;10824;51.632;4.950;2023-09-12T04:24:49;8.15;;;3.95;;
21330;SDS011;10824;51.632;4.950;2023-09-12T04:27:16;11.23;;;5.22;;
21330;SDS011;10824;51.632;4.950;2023-09-12T04:29:43;9.65;;;4.40;;
21330;SDS011;10824;51.632;4.950;2023-09-12T04:32:11;7.90;;;4.43;;
21330;SDS011;10824;51.632;4.950;2023-09-12T04:34:38;11.32;;;5.25;;
21330;SDS011;10824;51.632;4.950;2023-09-12T04:37:06;8.90;;;5.25;;
21330;SDS011;10824;51.632;4.950;2023-09-12T04:39:34;9.10;;;5.13;;
21330;SDS011;10824;51.632;4.950;2023-09-12T04:42:01;6.72;;;4.50;;
21330;SDS011;10824;51.632;4.950;2023-09-12T04:44:49;14.82;;;6.38;;
21330;SDS011;10824;51.632;4.950;2023-09-12T04:47:16;12.02;;;5.93;;
21330;SDS011;10824;51.632;4.950;2023-09-12T04:49:44;13.55;;;5.53;;
21330;SDS011;10824;51.632;4.950;2023-09-12T04:52:11;9.77;;;6.25;;
21330;SDS011;10824;51.632;4.950;2023-09-12T04:54:39;10.65;;;5.82;;
21330;SDS011;10824;51.632;4.950;2023-09-12T04:57:07;14.48;;;6.75;;
21330;SDS011;10824;51.632;4.950;2023-09-12T04:59:35;12.70;;;4.93;;
21330;SDS011;10824;51.632;4.950;2023-09-12T05:02:02;11.35;;;5.65;;
21330;SDS011;10824;51.632;4.950;2023-09-12T05:04:30;8.80;;;4.70;;
21330;SDS011;10824;51.632;4.950;2023-09-12T05:06:57;13.10;;;5.97;;
21330;SDS011;10824;51.632;4.950;2023-09-12T05:09:24;10.77;;;6.25;;
21330;SDS011;10824;51.632;4.950;2023-09-12T05:11:51;11.95;;;5.50;;
21330;SDS011;10824;51.632;4.950;2023-09-12T05:14:18;11.32;;;5.70;;
21330;SDS011;10824;51.632;4.950;2023-09-12T05:16:46;9.25;;;5.45;;
21330;SDS011;10824;51.632;4.950;2023-09-12T05:19:13;11.82;;;4.95;;
21330;SDS011;10824;51.632;4.950;2023-09-12T05:21:40;11.15;;;4.90;;
21330;SDS011;10824;51.632;4.950;2023-09-12T05:24:07;9.68;;;4.93;;
21330;SDS011;10824;51.632;4.950;2023-09-12T05:26:35;10.93;;;5.13;;
21330;SDS011;10824;51.632;4.950;2023-09-12T05:29:02;14.70;;;4.68;;
21330;SDS011;10824;51.632;4.950;2023-09-12T05:31:29;11.73;;;5.80;;
21330;SDS011;10824;51.632;4.950;2023-09-12T05:33:58;15.13;;;6.47;;
21330;SDS011;10824;51.632;4.950;2023-09-12T05:36:25;10.77;;;5.25;;
21330;SDS011;10824;51.632;4.950;2023-09-12T05:38:53;15.68;;;7.40;;
21330;SDS011;10824;51.632;4.950;2023-09-12T05:41:21;12.98;;;5.80;;
21330;SDS011;10824;51.632;4.950;2023-09-12T05:43:49;18.73;;;6.13;;
21330;SDS011;10824;51.632;4.950;2023-09-12T05:46:16;17.98;;;6.22;;
21330;SDS011;10824;51.632;4.950;2023-09-12T05:48:43;12.82;;;6.10;;
21330;SDS011;10824;51.632;4.950;2023-09-12T05:51:12;17.73;;;5.82;;
21330;SDS011;10824;51.632;4.950;2023-09-12T05:53:40;12.82;;;6.57;;
21330;SDS011;10824;51.632;4.950;2023-09-12T05:56:07;11.43;;;5.68;;
21330;SDS011;10824;51.632;4.950;2023-09-12T05:58:34;16.42;;;6.10;;
21330;SDS011;10824;51.632;4.950;2023-09-12T06:01:03;11.70;;;5.53;;
21330;SDS011;10824;51.632;4.950;2023-09-12T06:03:30;13.82;;;5.32;;
21330;SDS011;10824;51.632;4.950;2023-09-12T06:05:57;10.57;;;5.10;;
21330;SDS011;10824;51.632;4.950;2023-09-12T06:08:24;13.13;;;5.93;;
21330;SDS011;10824;51.632;4.950;2023-09-12T06:10:51;11.15;;;5.22;;
21330;SDS011;10824;51.632;4.950;2023-09-12T06:13:21;10.43;;;5.05;;
21330;SDS011;10824;51.632;4.950;2023-09-12T06:15:48;14.30;;;5.88;;
21330;SDS011;10824;51.632;4.950;2023-09-12T06:18:15;12.95;;;5.18;;
21330;SDS011;10824;51.632;4.950;2023-09-12T06:20:42;11.98;;;5.32;;
21330;SDS011;10824;51.632;4.950;2023-09-12T06:23:09;10.20;;;5.57;;
21330;SDS011;10824;51.632;4.950;2023-09-12T06:25:37;13.18;;;5.95;;
21330;SDS011;10824;51.632;4.950;2023-09-12T06:28:05;7.80;;;4.60;;
21330;SDS011;10824;51.632;4.950;2023-09-12T06:30:36;10.73;;;5.10;;
21330;SDS011;10824;51.632;4.950;2023-09-12T06:33:03;11.02;;;5.13;;
21330;SDS011;10824;51.632;4.950;2023-09-12T06:35:31;11.25;;;5.25;;
21330;SDS011;10824;51.632;4.950;2023-09-12T06:37:59;8.57;;;4.53;;
21330;SDS011;10824;51.632;4.950;2023-09-12T06:40:26;13.23;;;5.85;;
21330;SDS011;10824;51.632;4.950;2023-09-12T06:42:53;12.88;;;5.35;;
21330;SDS011;10824;51.632;4.950;2023-09-12T06:45:20;12.02;;;5.32;;
21330;SDS011;10824;51.632;4.950;2023-09-12T06:47:47;14.38;;;5.07;;
21330;SDS011;10824;51.632;4.950;2023-09-12T06:50:14;12.57;;;5.88;;
21330;SDS011;10824;51.632;4.950;2023-09-12T06:52:44;12.77;;;4.78;;
21330;SDS011;10824;51.632;4.950;2023-09-12T06:55:11;11.52;;;5.40;;
21330;SDS011;10824;51.632;4.950;2023-09-12T06:57:38;12.18;;;5.85;;
21330;SDS011;10824;51.632;4.950;2023-09-12T07:00:06;12.25;;;5.88;;
21330;SDS011;10824;51.632;4.950;2023-09-12T07:02:34;11.35;;;5.93;;
21330;SDS011;10824;51.632;4.950;2023-09-12T07:05:01;13.05;;;6.03;;
21330;SDS011;10824;51.632;4.950;2023-09-12T07:07:30;18.58;;;6.32;;
21330;SDS011;10824;51.632;4.950;2023-09-12T07:09:58;12.02;;;5.72;;
21330;SDS011;10824;51.632;4.950;2023-09-12T07:12:46;15.07;;;6.75;;
21330;SDS011;10824;51.632;4.950;2023-09-12T07:15:14;13.63;;;6.15;;
21330;SDS011;10824;51.632;4.950;2023-09-12T07:17:41;18.17;;;7.97;;
21330;SDS011;10824;51.632;4.950;2023-09-12T07:20:08;15.95;;;7.47;;
21330;SDS011;10824;51.632;4.950;2023-09-12T07:22:38;17.33;;;6.38;;
21330;SDS011;10824;51.632;4.950;2023-09-12T07:25:06;15.52;;;6.90;;
21330;SDS011;10824;51.632;4.950;2023-09-12T07:27:35;14.52;;;5.88;;
21330;SDS011;10824;51.632;4.950;2023-09-12T07:30:04;13.35;;;5.82;;
21330;SDS011;10824;51.632;4.950;2023-09-12T07:32:32;17.90;;;6.15;;
21330;SDS011;10824;51.632;4.950;2023-09-12T07:34:59;12.05;;;6.75;;
21330;SDS011;10824;51.632;4.950;2023-09-12T07:37:26;11.43;;;5.22;;
21330;SDS011;10824;51.632;4.950;2023-09-12T07:39:53;12.63;;;6.05;;
21330;SDS011;10824;51.632;4.950;2023-09-12T07:42:21;16.13;;;6.75;;
21330;SDS011;10824;51.632;4.950;2023-09-12T07:44:49;18.95;;;8.02;;
21330;SDS011;10824;51.632;4.950;2023-09-12T07:47:17;21.02;;;8.85;;
21330;SDS011;10824;51.632;4.950;2023-09-12T07:49:45;23.90;;;10.57;;
21330;SDS011;10824;51.632;4.950;2023-09-12T07:52:12;31.73;;;10.75;;
21330;SDS011;10824;51.632;4.950;2023-09-12T07:54:39;20.35;;;9.90;;
21330;SDS011;10824;51.632;4.950;2023-09-12T07:57:06;24.98;;;11.48;;
21330;SDS011;10824;51.632;4.950;2023-09-12T07:59:33;24.20;;;11.85;;
21330;SDS011;10824;51.632;4.950;2023-09-12T08:02:01;32.10;;;12.27;;
21330;SDS011;10824;51.632;4.950;2023-09-12T08:04:28;29.77;;;13.52;;
21330;SDS011;10824;51.632;4.950;2023-09-12T08:06:56;33.97;;;15.10;;
21330;SDS011;10824;51.632;4.950;2023-09-12T08:09:46;37.42;;;15.07;;
21330;SDS011;10824;51.632;4.950;2023-09-12T08:12:21;38.03;;;15.77;;
21330;SDS011;10824;51.632;4.950;2023-09-12T08:14:49;35.42;;;15.23;;
21330;SDS011;10824;51.632;4.950;2023-09-12T08:17:16;42.60;;;15.80;;
21330;SDS011;10824;51.632;4.950;2023-09-12T08:19:44;34.90;;;14.23;;
21330;SDS011;10824;51.632;4.950;2023-09-12T08:22:11;37.90;;;15.30;;
21330;SDS011;10824;51.632;4.950;2023-09-12T08:24:38;34.08;;;14.88;;
21330;SDS011;10824;51.632;4.950;2023-09-12T08:27:06;32.25;;;14.02;;
21330;SDS011;10824;51.632;4.950;2023-09-12T08:29:34;39.30;;;14.23;;
21330;SDS011;10824;51.632;4.950;2023-09-12T08:32:01;33.05;;;13.00;;
21330;SDS011;10824;51.632;4.950;2023-09-12T08:34:29;33.90;;;15.15;;
21330;SDS011;10824;51.632;4.950;2023-09-12T08:36:56;38.72;;;15.35;;
21330;SDS011;10824;51.632;4.950;2023-09-12T08:39:24;38.10;;;15.75;;
21330;SDS011;10824;51.632;4.950;2023-09-12T08:41:53;35.92;;;15.25;;
21330;SDS011;10824;51.632;4.950;2023-09-12T08:44:20;34.80;;;14.27;;
21330;SDS011;10824;51.632;4.950;2023-09-12T08:46:48;37.67;;;14.90;;
21330;SDS011;10824;51.632;4.950;2023-09-12T08:49:15;33.05;;;15.00;;
21330;SDS011;10824;51.632;4.950;2023-09-12T08:51:43;34.25;;;14.48;;
21330;SDS011;10824;51.632;4.950;2023-09-12T08:54:11;32.30;;;16.88;;
21330;SDS011;10824;51.632;4.950;2023-09-12T08:56:41;40.60;;;17.13;;
21330;SDS011;10824;51.632;4.950;2023-09-12T08:59:10;42.42;;;16.05;;
21330;SDS011;10824;51.632;4.950;2023-09-12T09:01:38;47.83;;;19.33;;
21330;SDS011;10824;51.632;4.950;2023-09-12T09:04:06;39.35;;;15.50;;
21330;SDS011;10824;51.632;4.950;2023-09-12T09:06:33;48.58;;;17.95;;
21330;SDS011;10824;51.632;4.950;2023-09-12T09:09:05;48.05;;;16.02;;
21330;SDS011;10824;51.632;4.950;2023-09-12T09:11:34;38.60;;;15.10;;
21330;SDS011;10824;51.632;4.950;2023-09-12T09:14:02;44.97;;;15.57;;
21330;SDS011;10824;51.632;4.950;2023-09-12T09:16:29;25.63;;;12.88;;
21330;SDS011;10824;51.632;4.950;2023-09-12T09:21:33;36.70;;;12.95;;
21330;SDS011;10824;51.632;4.950;2023-09-12T09:24:01;36.72;;;12.93;;
21330;SDS011;10824;51.632;4.950;2023-09-12T09:29:18;32.67;;;12.10;;
21330;SDS011;10824;51.632;4.950;2023-09-12T09:31:47;30.05;;;12.88;;
21330;SDS011;10824;51.632;4.950;2023-09-12T09:34:17;27.27;;;11.73;;
21330;SDS011;10824;51.632;4.950;2023-09-12T09:36:50;28.05;;;12.68;;
21330;SDS011;10824;51.632;4.950;2023-09-12T09:39:19;23.92;;;10.95;;
21330;SDS011;10824;51.632;4.950;2023-09-12T09:41:48;34.65;;;14.07;;
21330;SDS011;10824;51.632;4.950;2023-09-12T09:44:16;27.80;;;12.73;;
21330;SDS011;10824;51.632;4.950;2023-09-12T09:46:45;32.65;;;14.15;;
21330;SDS011;10824;51.632;4.950;2023-09-12T09:49:16;28.85;;;13.13;;
21330;SDS011;10824;51.632;4.950;2023-09-12T09:51:46;35.28;;;14.27;;
21330;SDS011;10824;51.632;4.950;2023-09-12T09:54:14;28.33;;;13.48;;
21330;SDS011;10824;51.632;4.950;2023-09-12T09:56:48;29.42;;;12.63;;
21330;SDS011;10824;51.632;4.950;2023-09-12T09:59:17;27.10;;;12.45;;
21330;SDS011;10824;51.632;4.950;2023-09-12T10:01:48;22.50;;;10.63;;
21330;SDS011;10824;51.632;4.950;2023-09-12T10:04:17;25.08;;;11.75;;
21330;SDS011;10824;51.632;4.950;2023-09-12T10:06:45;26.00;;;11.63;;
21330;SDS011;10824;51.632;4.950;2023-09-12T10:09:13;28.95;;;11.90;;
21330;SDS011;10824;51.632;4.950;2023-09-12T10:11:42;27.45;;;10.77;;
21330;SDS011;10824;51.632;4.950;2023-09-12T10:14:11;34.50;;;13.30;;
21330;SDS011;10824;51.632;4.950;2023-09-12T10:16:44;30.30;;;12.43;;
21330;SDS011;10824;51.632;4.950;2023-09-12T10:19:16;30.48;;;12.65;;
21330;SDS011;10824;51.632;4.950;2023-09-12T10:24:18;27.17;;;13.27;;
21330;SDS011;10824;51.632;4.950;2023-09-12T10:26:48;26.17;;;10.65;;
21330;SDS011;10824;51.632;4.950;2023-09-12T10:29:17;27.23;;;11.52;;
21330;SDS011;10824;51.632;4.950;2023-09-12T10:31:44;29.63;;;10.07;;
21330;SDS011;10824;51.632;4.950;2023-09-12T10:34:13;22.70;;;10.50;;
21330;SDS011;10824;51.632;4.950;2023-09-12T10:36:44;23.33;;;10.13;;
21330;SDS011;10824;51.632;4.950;2023-09-12T10:39:12;27.27;;;10.55;;
21330;SDS011;10824;51.632;4.950;2023-09-12T10:41:41;28.88;;;10.68;;
21330;SDS011;10824;51.632;4.950;2023-09-12T10:44:14;26.55;;;11.35;;
21330;SDS011;10824;51.632;4.950;2023-09-12T10:46:43;19.42;;;9.45;;
21330;SDS011;10824;51.632;4.950;2023-09-12T10:49:13;22.10;;;10.07;;
21330;SDS011;10824;51.632;4.950;2023-09-12T10:51:41;21.25;;;10.25;;
21330;SDS011;10824;51.632;4.950;2023-09-12T10:54:13;28.30;;;12.18;;
21330;SDS011;10824;51.632;4.950;2023-09-12T10:56:43;18.80;;;8.75;;
21330;SDS011;10824;51.632;4.950;2023-09-12T10:59:11;18.55;;;9.25;;
21330;SDS011;10824;51.632;4.950;2023-09-12T11:01:40;22.73;;;9.75;;
21330;SDS011;10824;51.632;4.950;2023-09-12T11:06:46;24.23;;;9.68;;
21330;SDS011;10824;51.632;4.950;2023-09-12T11:09:17;20.30;;;9.60;;
21330;SDS011;10824;51.632;4.950;2023-09-12T11:14:24;19.02;;;9.13;;
21330;SDS011;10824;51.632;4.950;2023-09-12T11:19:42;18.77;;;9.15;;
21330;SDS011;10824;51.632;4.950;2023-09-12T11:25:16;18.40;;;7.82;;
21330;SDS011;10824;51.632;4.950;2023-09-12T11:30:17;23.45;;;9.27;;
21330;SDS011;10824;51.632;4.950;2023-09-12T11:32:45;15.35;;;7.60;;
21330;SDS011;10824;51.632;4.950;2023-09-12T11:35:15;14.95;;;7.45;;
21330;SDS011;10824;51.632;4.950;2023-09-12T11:37:50;17.10;;;8.70;;
21330;SDS011;10824;51.632;4.950;2023-09-12T11:41:04;15.95;;;7.10;;
21330;SDS011;10824;51.632;4.950;2023-09-12T11:43:07;24.95;;;10.80;;
21330;SDS011;10824;51.632;4.950;2023-09-12T11:45:44;22.35;;;10.55;;
21330;SDS011;10824;51.632;4.950;2023-09-12T11:48:13;21.08;;;10.20;;
21330;SDS011;10824;51.632;4.950;2023-09-12T11:50:46;19.13;;;8.68;;
21330;SDS011;10824;51.632;4.950;2023-09-12T11:53:20;19.20;;;9.25;;
21330;SDS011;10824;51.632;4.950;2023-09-12T11:55:49;24.65;;;11.00;;
21330;SDS011;10824;51.632;4.950;2023-09-12T11:58:19;20.58;;;8.73;;
21330;SDS011;10824;51.632;4.950;2023-09-12T12:00:47;18.73;;;8.88;;
21330;SDS011;10824;51.632;4.950;2023-09-12T12:03:21;21.70;;;9.43;;
21330;SDS011;10824;51.632;4.950;2023-09-12T12:05:50;24.95;;;10.85;;
21330;SDS011;10824;51.632;4.950;2023-09-12T12:08:18;19.33;;;8.90;;
21330;SDS011;10824;51.632;4.950;2023-09-12T12:10:49;22.85;;;10.57;;
21330;SDS011;10824;51.632;4.950;2023-09-12T12:13:19;26.25;;;12.38;;
21330;SDS011;10824;51.632;4.950;2023-09-12T12:15:47;26.45;;;11.07;;
21330;SDS011;10824;51.632;4.950;2023-09-12T12:18:14;35.92;;;12.15;;
21330;SDS011;10824;51.632;4.950;2023-09-12T12:20:42;23.98;;;10.63;;
21330;SDS011;10824;51.632;4.950;2023-09-12T12:23:10;24.20;;;11.90;;
21330;SDS011;10824;51.632;4.950;2023-09-12T12:25:37;24.95;;;11.43;;
21330;SDS011;10824;51.632;4.950;2023-09-12T12:28:06;21.67;;;10.00;;
21330;SDS011;10824;51.632;4.950;2023-09-12T12:30:38;25.40;;;11.48;;
21330;SDS011;10824;51.632;4.950;2023-09-12T12:33:09;23.00;;;10.93;;
21330;SDS011;10824;51.632;4.950;2023-09-12T12:36:00;24.05;;;10.30;;
21330;SDS011;10824;51.632;4.950;2023-09-12T12:38:35;24.73;;;10.48;;
21330;SDS011;10824;51.632;4.950;2023-09-12T12:41:15;26.92;;;9.95;;
21330;SDS011;10824;51.632;4.950;2023-09-12T12:43:49;19.60;;;8.43;;
21330;SDS011;10824;51.632;4.950;2023-09-12T12:46:20;27.15;;;13.27;;
21330;SDS011;10824;51.632;4.950;2023-09-12T12:48:48;33.35;;;11.70;;
21330;SDS011;10824;51.632;4.950;2023-09-12T12:51:19;26.58;;;10.43;;
21330;SDS011;10824;51.632;4.950;2023-09-12T12:53:50;23.52;;;11.85;;
21330;SDS011;10824;51.632;4.950;2023-09-12T12:56:23;26.05;;;11.82;;
21330;SDS011;10824;51.632;4.950;2023-09-12T12:58:58;21.67;;;10.27;;
21330;SDS011;10824;51.632;4.950;2023-09-12T13:01:30;36.15;;;11.68;;
21330;SDS011;10824;51.632;4.950;2023-09-12T13:03:58;27.50;;;10.90;;
21330;SDS011;10824;51.632;4.950;2023-09-12T13:06:25;22.35;;;10.73;;
21330;SDS011;10824;51.632;4.950;2023-09-12T13:08:54;32.97;;;12.18;;
21330;SDS011;10824;51.632;4.950;2023-09-12T13:11:24;35.75;;;14.05;;
21330;SDS011;10824;51.632;4.950;2023-09-12T13:13:51;27.23;;;11.77;;
21330;SDS011;10824;51.632;4.950;2023-09-12T13:16:21;22.67;;;9.23;;
21330;SDS011;10824;51.632;4.950;2023-09-12T13:18:48;21.02;;;9.35;;
21330;SDS011;10824;51.632;4.950;2023-09-12T13:21:16;21.63;;;10.13;;
21330;SDS011;10824;51.632;4.950;2023-09-12T13:23:43;22.50;;;9.93;;
21330;SDS011;10824;51.632;4.950;2023-09-12T13:26:11;22.17;;;10.15;;
21330;SDS011;10824;51.632;4.950;2023-09-12T13:28:39;24.65;;;10.05;;
21330;SDS011;10824;51.632;4.950;2023-09-12T13:31:07;24.88;;;9.18;;
21330;SDS011;10824;51.632;4.950;2023-09-12T13:33:34;24.50;;;8.90;;
21330;SDS011;10824;51.632;4.950;2023-09-12T13:36:02;24.48;;;9.43;;
21330;SDS011;10824;51.632;4.950;2023-09-12T13:38:30;21.73;;;10.20;;
21330;SDS011;10824;51.632;4.950;2023-09-12T13:40:57;20.02;;;8.80;;
21330;SDS011;10824;51.632;4.950;2023-09-12T13:43:27;17.45;;;8.07;;
21330;SDS011;10824;51.632;4.950;2023-09-12T13:45:55;22.25;;;9.18;;
21330;SDS011;10824;51.632;4.950;2023-09-12T13:48:22;20.00;;;7.22;;
21330;SDS011;10824;51.632;4.950;2023-09-12T13:50:49;20.25;;;8.50;;
21330;SDS011;10824;51.632;4.950;2023-09-12T13:53:19;20.58;;;6.88;;
21330;SDS011;10824;51.632;4.950;2023-09-12T13:55:46;17.55;;;7.90;;
21330;SDS011;10824;51.632;4.950;2023-09-12T13:58:34;18.77;;;7.63;;
21330;SDS011;10824;51.632;4.950;2023-09-12T14:01:12;15.40;;;8.32;;
21330;SDS011;10824;51.632;4.950;2023-09-12T14:03:57;21.42;;;8.70;;
21330;SDS011;10824;51.632;4.950;2023-09-12T14:06:24;19.77;;;9.02;;
21330;SDS011;10824;51.632;4.950;2023-09-12T14:08:52;19.17;;;8.73;;
21330;SDS011;10824;51.632;4.950;2023-09-12T14:11:20;21.88;;;8.40;;
21330;SDS011;10824;51.632;4.950;2023-09-12T14:14:01;18.92;;;7.35;;
21330;SDS011;10824;51.632;4.950;2023-09-12T14:19:00;17.20;;;7.10;;
21330;SDS011;10824;51.632;4.950;2023-09-12T14:21:28;22.23;;;8.93;;
21330;SDS011;10824;51.632;4.950;2023-09-12T14:23:57;20.50;;;7.63;;
21330;SDS011;10824;51.632;4.950;2023-09-12T14:26:24;22.85;;;9.63;;
21330;SDS011;10824;51.632;4.950;2023-09-12T14:28:52;16.83;;;8.63;;
21330;SDS011;10824;51.632;4.950;2023-09-12T14:31:22;19.77;;;8.65;;
21330;SDS011;10824;51.632;4.950;2023-09-12T14:33:49;25.38;;;8.90;;
21330;SDS011;10824;51.632;4.950;2023-09-12T14:36:19;19.00;;;7.20;;
21330;SDS011;10824;51.632;4.950;2023-09-12T14:38:46;20.95;;;8.52;;
21330;SDS011;10824;51.632;4.950;2023-09-12T14:41:13;18.85;;;7.57;;
21330;SDS011;10824;51.632;4.950;2023-09-12T14:43:41;17.75;;;8.60;;
21330;SDS011;10824;51.632;4.950;2023-09-12T14:46:09;19.25;;;7.55;;
21330;SDS011;10824;51.632;4.950;2023-09-12T14:48:39;18.92;;;8.88;;
21330;SDS011;10824;51.632;4.950;2023-09-12T14:51:18;24.30;;;10.35;;
21330;SDS011;10824;51.632;4.950;2023-09-12T14:53:59;27.25;;;9.27;;
21330;SDS011;10824;51.632;4.950;2023-09-12T14:56:27;23.33;;;11.30;;
21330;SDS011;10824;51.632;4.950;2023-09-12T14:58:55;28.40;;;10.45;;
21330;SDS011;10824;51.632;4.950;2023-09-12T15:01:22;22.50;;;9.65;;
21330;SDS011;10824;51.632;4.950;2023-09-12T15:03:51;20.10;;;10.10;;
21330;SDS011;10824;51.632;4.950;2023-09-12T15:06:22;25.65;;;10.10;;
21330;SDS011;10824;51.632;4.950;2023-09-12T15:08:49;27.80;;;11.77;;
21330;SDS011;10824;51.632;4.950;2023-09-12T15:11:17;23.05;;;9.23;;